sensor_id;sensor_type;location;lat;lon;timestamp;pressure;altitude;pressure_sealevel;temperature;humidity
55733;BME280;41637;52.364;9.910;2023-04-29T00:01:04;100236.60;;;12.56;99.67
55733;BME280;41637;52.364;9.910;2023-04-29T00:03:30;100244.56;;;12.53;99.64
55733;BME280;41637;52.364;9.910;2023-04-29T00:06:00;100243.87;;;12.51;99.85
55733;BME280;41637;52.364;9.910;2023-04-29T00:08:27;100244.68;;;12.49;99.72
55733;BME280;41637;52.364;9.910;2023-04-29T00:10:54;100243.69;;;12.48;99.69
55733;BME280;41637;52.364;9.910;2023-04-29T00:13:21;100244.08;;;12.43;99.51
55733;BME280;41637;52.364;9.910;2023-04-29T00:15:47;100242.79;;;12.40;99.47
55733;BME280;41637;52.364;9.910;2023-04-29T00:18:14;100240.93;;;12.35;99.72
55733;BME280;41637;52.364;9.910;2023-04-29T00:20:40;100236.99;;;12.34;99.89
55733;BME280;41637;52.364;9.910;2023-04-29T00:23:08;100242.95;;;12.30;99.93
55733;BME280;41637;52.364;9.910;2023-04-29T00:25:35;100239.02;;;12.29;99.94
55733;BME280;41637;52.364;9.910;2023-04-29T00:28:04;100241.17;;;12.27;99.93
55733;BME280;41637;52.364;9.910;2023-04-29T00:30:31;100243.00;;;12.23;100.00
55733;BME280;41637;52.364;9.910;2023-04-29T00:32:59;100248.42;;;12.19;100.00
55733;BME280;41637;52.364;9.910;2023-04-29T00:35:26;100257.72;;;12.13;100.00
55733;BME280;41637;52.364;9.910;2023-04-29T00:37:53;100248.54;;;12.10;100.00
55733;BME280;41637;52.364;9.910;2023-04-29T00:40:19;100253.70;;;12.10;100.00
55733;BME280;41637;52.364;9.910;2023-04-29T00:42:46;100247.41;;;12.06;100.00
55733;BME280;41637;52.364;9.910;2023-04-29T00:45:13;100252.66;;;12.03;100.00
55733;BME280;41637;52.364;9.910;2023-04-29T00:47:39;100252.48;;;12.00;100.00
55733;BME280;41637;52.364;9.910;2023-04-29T00:50:06;100254.69;;;11.99;100.00
55733;BME280;41637;52.364;9.910;2023-04-29T00:52:33;100268.48;;;11.95;100.00
55733;BME280;41637;52.364;9.910;2023-04-29T00:55:00;100268.73;;;11.91;100.00
55733;BME280;41637;52.364;9.910;2023-04-29T00:57:28;100267.33;;;11.88;100.00
55733;BME280;41637;52.364;9.910;2023-04-29T00:59:56;100264.61;;;11.85;100.00
55733;BME280;41637;52.364;9.910;2023-04-29T01:02:24;100273.12;;;11.83;100.00
55733;BME280;41637;52.364;9.910;2023-04-29T01:04:51;100280.73;;;11.79;100.00
55733;BME280;41637;52.364;9.910;2023-04-29T01:07:49;100279.45;;;11.78;100.00
55733;BME280;41637;52.364;9.910;2023-04-29T01:10:53;100280.30;;;11.73;100.00
55733;BME280;41637;52.364;9.910;2023-04-29T01:18:42;100286.48;;;11.67;100.00
55733;BME280;41637;52.364;9.910;2023-04-29T01:21:10;100286.98;;;11.63;100.00
55733;BME280;41637;52.364;9.910;2023-04-29T01:23:37;100285.74;;;11.62;100.00
55733;BME280;41637;52.364;9.910;2023-04-29T01:26:04;100287.77;;;11.60;100.00
55733;BME280;41637;52.364;9.910;2023-04-29T01:31:14;100289.92;;;11.53;100.00
55733;BME280;41637;52.364;9.910;2023-04-29T01:36:53;100294.44;;;11.36;100.00
55733;BME280;41637;52.364;9.910;2023-04-29T01:42:17;100300.83;;;11.22;100.00
55733;BME280;41637;52.364;9.910;2023-04-29T01:44:48;100296.35;;;11.16;100.00
55733;BME280;41637;52.364;9.910;2023-04-29T01:47:17;100303.45;;;11.12;100.00
55733;BME280;41637;52.364;9.910;2023-04-29T01:49:43;100304.81;;;11.09;100.00
55733;BME280;41637;52.364;9.910;2023-04-29T01:52:12;100306.88;;;11.04;100.00
55733;BME280;41637;52.364;9.910;2023-04-29T01:54:38;100311.98;;;10.99;100.00
55733;BME280;41637;52.364;9.910;2023-04-29T01:57:05;100313.40;;;10.98;100.00
55733;BME280;41637;52.364;9.910;2023-04-29T01:59:31;100323.80;;;10.95;100.00
55733;BME280;41637;52.364;9.910;2023-04-29T02:01:58;100321.08;;;10.92;100.00
55733;BME280;41637;52.364;9.910;2023-04-29T02:04:25;100321.05;;;10.89;100.00
55733;BME280;41637;52.364;9.910;2023-04-29T02:06:53;100319.89;;;10.88;100.00
55733;BME280;41637;52.364;9.910;2023-04-29T02:09:20;100325.15;;;10.87;100.00
55733;BME280;41637;52.364;9.910;2023-04-29T02:11:46;100323.85;;;10.88;100.00
55733;BME280;41637;52.364;9.910;2023-04-29T02:14:13;100329.16;;;10.88;100.00
55733;BME280;41637;52.364;9.910;2023-04-29T02:16:43;100336.21;;;10.88;100.00
55733;BME280;41637;52.364;9.910;2023-04-29T02:19:10;100335.38;;;10.86;100.00
55733;BME280;41637;52.364;9.910;2023-04-29T02:21:37;100336.77;;;10.87;100.00
55733;BME280;41637;52.364;9.910;2023-04-29T02:24:05;100336.20;;;10.87;100.00
55733;BME280;41637;52.364;9.910;2023-04-29T02:26:32;100345.51;;;10.86;100.00
55733;BME280;41637;52.364;9.910;2023-04-29T02:29:00;100345.63;;;10.86;100.00
55733;BME280;41637;52.364;9.910;2023-04-29T02:31:27;100352.75;;;10.85;100.00
55733;BME280;41637;52.364;9.910;2023-04-29T02:33:54;100365.06;;;10.84;100.00
55733;BME280;41637;52.364;9.910;2023-04-29T02:36:21;100367.26;;;10.80;100.00
55733;BME280;41637;52.364;9.910;2023-04-29T02:38:48;100368.23;;;10.79;100.00
55733;BME280;41637;52.364;9.910;2023-04-29T02:41:17;100370.67;;;10.78;100.00
55733;BME280;41637;52.364;9.910;2023-04-29T02:43:43;100377.00;;;10.75;100.00
55733;BME280;41637;52.364;9.910;2023-04-29T02:46:11;100377.63;;;10.73;100.00
55733;BME280;41637;52.364;9.910;2023-04-29T02:48:38;100374.65;;;10.70;100.00
55733;BME280;41637;52.364;9.910;2023-04-29T02:51:05;100377.83;;;10.69;100.00
55733;BME280;41637;52.364;9.910;2023-04-29T02:53:32;100383.80;;;10.63;100.00
55733;BME280;41637;52.364;9.910;2023-04-29T02:55:59;100382.70;;;10.59;100.00
55733;BME280;41637;52.364;9.910;2023-04-29T02:58:26;100385.76;;;10.55;100.00
55733;BME280;41637;52.364;9.910;2023-04-29T03:00:53;100388.72;;;10.53;100.00
55733;BME280;41637;52.364;9.910;2023-04-29T03:03:19;100390.33;;;10.51;100.00
55733;BME280;41637;52.364;9.910;2023-04-29T03:05:46;100390.27;;;10.44;100.00
55733;BME280;41637;52.364;9.910;2023-04-29T03:08:13;100395.02;;;10.40;100.00
55733;BME280;41637;52.364;9.910;2023-04-29T03:10:40;100395.26;;;10.36;100.00
55733;BME280;41637;52.364;9.910;2023-04-29T03:13:08;100402.17;;;10.33;100.00
55733;BME280;41637;52.364;9.910;2023-04-29T03:15:35;100399.98;;;10.31;100.00
55733;BME280;41637;52.364;9.910;2023-04-29T03:18:02;100399.00;;;10.30;100.00
55733;BME280;41637;52.364;9.910;2023-04-29T03:20:30;100404.56;;;10.28;100.00
55733;BME280;41637;52.364;9.910;2023-04-29T03:22:58;100408.10;;;10.27;100.00
55733;BME280;41637;52.364;9.910;2023-04-29T03:25:26;100407.12;;;10.27;100.00
55733;BME280;41637;52.364;9.910;2023-04-29T03:27:53;100408.36;;;10.26;100.00
55733;BME280;41637;52.364;9.910;2023-04-29T03:30:20;100409.14;;;10.26;100.00
55733;BME280;41637;52.364;9.910;2023-04-29T03:32:47;100414.83;;;10.25;100.00
55733;BME280;41637;52.364;9.910;2023-04-29T03:35:14;100414.89;;;10.21;100.00
55733;BME280;41637;52.364;9.910;2023-04-29T03:37:41;100418.61;;;10.14;100.00
55733;BME280;41637;52.364;9.910;2023-04-29T03:40:10;100417.94;;;10.13;100.00
55733;BME280;41637;52.364;9.910;2023-04-29T03:42:37;100420.21;;;10.14;100.00
55733;BME280;41637;52.364;9.910;2023-04-29T03:45:04;100415.98;;;10.14;100.00
55733;BME280;41637;52.364;9.910;2023-04-29T03:47:32;100418.19;;;10.15;100.00
55733;BME280;41637;52.364;9.910;2023-04-29T03:49:59;100422.06;;;10.11;100.00
55733;BME280;41637;52.364;9.910;2023-04-29T03:52:26;100424.36;;;10.06;100.00
55733;BME280;41637;52.364;9.910;2023-04-29T03:54:52;100429.36;;;10.01;100.00
55733;BME280;41637;52.364;9.910;2023-04-29T03:57:19;100432.10;;;9.94;100.00
55733;BME280;41637;52.364;9.910;2023-04-29T03:59:46;100433.66;;;9.88;100.00
55733;BME280;41637;52.364;9.910;2023-04-29T04:02:16;100440.62;;;9.85;100.00
55733;BME280;41637;52.364;9.910;2023-04-29T04:04:43;100442.12;;;9.83;100.00
55733;BME280;41637;52.364;9.910;2023-04-29T04:07:10;100448.73;;;9.80;100.00
55733;BME280;41637;52.364;9.910;2023-04-29T04:09:37;100452.17;;;9.79;100.00
55733;BME280;41637;52.364;9.910;2023-04-29T04:12:05;100459.71;;;9.76;100.00
55733;BME280;41637;52.364;9.910;2023-04-29T04:14:32;100470.20;;;9.73;100.00
55733;BME280;41637;52.364;9.910;2023-04-29T04:16:59;100463.79;;;9.70;100.00
55733;BME280;41637;52.364;9.910;2023-04-29T04:19:26;100470.84;;;9.70;100.00
55733;BME280;41637;52.364;9.910;2023-04-29T04:21:54;100477.44;;;9.69;100.00
55733;BME280;41637;52.364;9.910;2023-04-29T04:24:22;100476.67;;;9.69;100.00
55733;BME280;41637;52.364;9.910;2023-04-29T04:26:48;100480.20;;;9.66;100.00
55733;BME280;41637;52.364;9.910;2023-04-29T04:29:15;100482.22;;;9.67;100.00
55733;BME280;41637;52.364;9.910;2023-04-29T04:31:42;100485.00;;;9.66;100.00
55733;BME280;41637;52.364;9.910;2023-04-29T04:34:12;100492.23;;;9.64;100.00
55733;BME280;41637;52.364;9.910;2023-04-29T04:36:39;100492.96;;;9.64;100.00
55733;BME280;41637;52.364;9.910;2023-04-29T04:39:06;100499.02;;;9.62;100.00
55733;BME280;41637;52.364;9.910;2023-04-29T04:41:33;100498.55;;;9.57;100.00
55733;BME280;41637;52.364;9.910;2023-04-29T04:44:00;100509.85;;;9.53;100.00
55733;BME280;41637;52.364;9.910;2023-04-29T04:46:28;100511.92;;;9.51;100.00
55733;BME280;41637;52.364;9.910;2023-04-29T04:48:55;100515.98;;;9.51;100.00
55733;BME280;41637;52.364;9.910;2023-04-29T04:51:22;100517.21;;;9.52;100.00
55733;BME280;41637;52.364;9.910;2023-04-29T04:53:48;100527.16;;;9.52;100.00
55733;BME280;41637;52.364;9.910;2023-04-29T04:56:15;100524.30;;;9.51;100.00
55733;BME280;41637;52.364;9.910;2023-04-29T04:58:42;100527.91;;;9.50;100.00
55733;BME280;41637;52.364;9.910;2023-04-29T05:01:09;100533.11;;;9.51;100.00
55733;BME280;41637;52.364;9.910;2023-04-29T05:03:35;100537.14;;;9.53;100.00
55733;BME280;41637;52.364;9.910;2023-04-29T05:06:03;100539.35;;;9.55;100.00
55733;BME280;41637;52.364;9.910;2023-04-29T05:08:29;100544.45;;;9.53;100.00
55733;BME280;41637;52.364;9.910;2023-04-29T05:10:56;100549.52;;;9.52;100.00
55733;BME280;41637;52.364;9.910;2023-04-29T05:13:24;100556.17;;;9.51;100.00
55733;BME280;41637;52.364;9.910;2023-04-29T05:15:51;100560.98;;;9.48;100.00
55733;BME280;41637;52.364;9.910;2023-04-29T05:18:18;100559.98;;;9.47;100.00
55733;BME280;41637;52.364;9.910;2023-04-29T05:20:44;100566.55;;;9.45;100.00
55733;BME280;41637;52.364;9.910;2023-04-29T05:23:11;100570.45;;;9.42;100.00
55733;BME280;41637;52.364;9.910;2023-04-29T05:25:38;100570.64;;;9.44;100.00
55733;BME280;41637;52.364;9.910;2023-04-29T05:28:05;100574.08;;;9.44;100.00
55733;BME280;41637;52.364;9.910;2023-04-29T05:30:32;100579.75;;;9.39;100.00
55733;BME280;41637;52.364;9.910;2023-04-29T05:32:59;100581.45;;;9.36;100.00
55733;BME280;41637;52.364;9.910;2023-04-29T05:35:27;100586.09;;;9.33;100.00
55733;BME280;41637;52.364;9.910;2023-04-29T05:37:53;100585.16;;;9.35;100.00
55733;BME280;41637;52.364;9.910;2023-04-29T05:40:20;100585.44;;;9.39;100.00
55733;BME280;41637;52.364;9.910;2023-04-29T05:42:48;100593.88;;;9.41;100.00
55733;BME280;41637;52.364;9.910;2023-04-29T05:45:15;100600.24;;;9.41;100.00
55733;BME280;41637;52.364;9.910;2023-04-29T05:47:42;100603.07;;;9.42;100.00
55733;BME280;41637;52.364;9.910;2023-04-29T05:50:09;100609.73;;;9.44;100.00
55733;BME280;41637;52.364;9.910;2023-04-29T05:52:37;100607.23;;;9.48;100.00
55733;BME280;41637;52.364;9.910;2023-04-29T05:55:04;100617.03;;;9.47;100.00
55733;BME280;41637;52.364;9.910;2023-04-29T05:57:33;100617.60;;;9.47;100.00
55733;BME280;41637;52.364;9.910;2023-04-29T06:00:00;100617.52;;;9.49;100.00
55733;BME280;41637;52.364;9.910;2023-04-29T06:02:27;100622.17;;;9.51;100.00
55733;BME280;41637;52.364;9.910;2023-04-29T06:04:54;100627.04;;;9.51;100.00
55733;BME280;41637;52.364;9.910;2023-04-29T06:07:21;100624.59;;;9.50;100.00
55733;BME280;41637;52.364;9.910;2023-04-29T06:09:50;100627.56;;;9.55;100.00
55733;BME280;41637;52.364;9.910;2023-04-29T06:12:17;100633.11;;;9.63;100.00
55733;BME280;41637;52.364;9.910;2023-04-29T06:14:44;100635.44;;;9.69;100.00
55733;BME280;41637;52.364;9.910;2023-04-29T06:17:10;100642.21;;;9.71;100.00
55733;BME280;41637;52.364;9.910;2023-04-29T06:19:37;100647.10;;;9.75;100.00
55733;BME280;41637;52.364;9.910;2023-04-29T06:22:04;100652.52;;;9.77;100.00
55733;BME280;41637;52.364;9.910;2023-04-29T06:24:31;100661.66;;;9.77;100.00
55733;BME280;41637;52.364;9.910;2023-04-29T06:26:57;100663.01;;;9.79;100.00
55733;BME280;41637;52.364;9.910;2023-04-29T06:29:24;100668.52;;;9.79;100.00
55733;BME280;41637;52.364;9.910;2023-04-29T06:31:51;100671.69;;;9.77;100.00
55733;BME280;41637;52.364;9.910;2023-04-29T06:34:19;100673.70;;;9.76;100.00
55733;BME280;41637;52.364;9.910;2023-04-29T06:36:46;100678.27;;;9.79;100.00
55733;BME280;41637;52.364;9.910;2023-04-29T06:39:12;100681.96;;;9.81;100.00
55733;BME280;41637;52.364;9.910;2023-04-29T06:41:39;100686.48;;;9.83;100.00
55733;BME280;41637;52.364;9.910;2023-04-29T06:44:06;100689.66;;;9.86;100.00
55733;BME280;41637;52.364;9.910;2023-04-29T06:46:33;100693.10;;;9.87;100.00
55733;BME280;41637;52.364;9.910;2023-04-29T06:49:00;100697.94;;;9.88;100.00
55733;BME280;41637;52.364;9.910;2023-04-29T06:51:26;100702.59;;;9.91;100.00
55733;BME280;41637;52.364;9.910;2023-04-29T06:53:54;100707.91;;;9.94;100.00
55733;BME280;41637;52.364;9.910;2023-04-29T06:56:21;100715.83;;;9.97;100.00
55733;BME280;41637;52.364;9.910;2023-04-29T06:58:49;100719.48;;;10.04;100.00
55733;BME280;41637;52.364;9.910;2023-04-29T07:01:15;100725.25;;;10.09;100.00
55733;BME280;41637;52.364;9.910;2023-04-29T07:03:42;100730.84;;;10.13;100.00
55733;BME280;41637;52.364;9.910;2023-04-29T07:06:09;100734.00;;;10.20;100.00
55733;BME280;41637;52.364;9.910;2023-04-29T07:08:36;100738.25;;;10.29;100.00
55733;BME280;41637;52.364;9.910;2023-04-29T07:11:02;100739.38;;;10.43;100.00
55733;BME280;41637;52.364;9.910;2023-04-29T07:13:29;100741.70;;;10.62;99.88
55733;BME280;41637;52.364;9.910;2023-04-29T07:15:56;100744.31;;;10.76;98.37
55733;BME280;41637;52.364;9.910;2023-04-29T07:18:23;100751.93;;;10.89;97.08
55733;BME280;41637;52.364;9.910;2023-04-29T07:20:50;100756.91;;;11.04;96.66
55733;BME280;41637;52.364;9.910;2023-04-29T07:23:18;100764.14;;;11.22;96.25
55733;BME280;41637;52.364;9.910;2023-04-29T07:25:45;100769.13;;;11.31;93.52
55733;BME280;41637;52.364;9.910;2023-04-29T07:28:12;100774.48;;;11.42;93.42
55733;BME280;41637;52.364;9.910;2023-04-29T07:30:38;100776.45;;;11.57;93.64
55733;BME280;41637;52.364;9.910;2023-04-29T07:33:05;100785.56;;;11.71;92.07
55733;BME280;41637;52.364;9.910;2023-04-29T07:35:31;100790.27;;;11.87;91.27
55733;BME280;41637;52.364;9.910;2023-04-29T07:37:58;100793.45;;;12.04;91.09
55733;BME280;41637;52.364;9.910;2023-04-29T07:40:25;100799.27;;;12.13;88.83
55733;BME280;41637;52.364;9.910;2023-04-29T07:42:52;100800.51;;;12.25;88.75
55733;BME280;41637;52.364;9.910;2023-04-29T07:45:18;100808.39;;;12.34;87.82
55733;BME280;41637;52.364;9.910;2023-04-29T07:47:45;100811.02;;;12.34;85.91
55733;BME280;41637;52.364;9.910;2023-04-29T07:50:12;100814.98;;;12.33;85.67
55733;BME280;41637;52.364;9.910;2023-04-29T07:52:39;100812.94;;;12.42;85.12
55733;BME280;41637;52.364;9.910;2023-04-29T07:55:06;100817.64;;;12.54;85.28
55733;BME280;41637;52.364;9.910;2023-04-29T07:57:33;100822.28;;;12.62;84.48
55733;BME280;41637;52.364;9.910;2023-04-29T08:00:00;100822.55;;;12.74;84.46
55733;BME280;41637;52.364;9.910;2023-04-29T08:02:26;100825.85;;;12.80;84.15
55733;BME280;41637;52.364;9.910;2023-04-29T08:04:53;100828.68;;;12.90;84.17
55733;BME280;41637;52.364;9.910;2023-04-29T08:07:22;100829.67;;;12.94;82.43
55733;BME280;41637;52.364;9.910;2023-04-29T08:09:48;100836.29;;;13.02;82.53
55733;BME280;41637;52.364;9.910;2023-04-29T08:12:15;100838.01;;;13.13;81.64
55733;BME280;41637;52.364;9.910;2023-04-29T08:14:42;100842.69;;;13.18;79.82
55733;BME280;41637;52.364;9.910;2023-04-29T08:17:08;100846.88;;;13.20;79.13
55733;BME280;41637;52.364;9.910;2023-04-29T08:19:35;100846.30;;;13.26;79.56
55733;BME280;41637;52.364;9.910;2023-04-29T08:22:02;100850.56;;;13.39;78.98
55733;BME280;41637;52.364;9.910;2023-04-29T08:24:29;100855.98;;;13.44;77.84
55733;BME280;41637;52.364;9.910;2023-04-29T08:26:56;100854.52;;;13.49;78.43
55733;BME280;41637;52.364;9.910;2023-04-29T08:29:24;100857.23;;;13.54;77.36
55733;BME280;41637;52.364;9.910;2023-04-29T08:31:51;100855.31;;;13.55;76.80
55733;BME280;41637;52.364;9.910;2023-04-29T08:34:18;100858.27;;;13.66;77.35
55733;BME280;41637;52.364;9.910;2023-04-29T08:36:45;100862.42;;;13.80;75.46
55733;BME280;41637;52.364;9.910;2023-04-29T08:39:12;100862.25;;;14.00;75.95
55733;BME280;41637;52.364;9.910;2023-04-29T08:41:39;100875.30;;;14.15;74.30
55733;BME280;41637;52.364;9.910;2023-04-29T08:44:05;100870.75;;;14.22;73.03
55733;BME280;41637;52.364;9.910;2023-04-29T08:46:32;100873.74;;;14.34;73.41
55733;BME280;41637;52.364;9.910;2023-04-29T08:49:01;100878.73;;;14.37;71.21
55733;BME280;41637;52.364;9.910;2023-04-29T08:51:29;100874.70;;;14.28;70.84
55733;BME280;41637;52.364;9.910;2023-04-29T08:53:57;100885.29;;;14.18;70.71
55733;BME280;41637;52.364;9.910;2023-04-29T08:56:24;100883.84;;;14.16;71.96
55733;BME280;41637;52.364;9.910;2023-04-29T08:58:53;100883.59;;;14.21;71.43
55733;BME280;41637;52.364;9.910;2023-04-29T09:01:27;100887.08;;;14.20;70.08
55733;BME280;41637;52.364;9.910;2023-04-29T09:04:09;100889.98;;;14.15;69.98
55733;BME280;41637;52.364;9.910;2023-04-29T09:06:37;100889.59;;;14.21;70.19
55733;BME280;41637;52.364;9.910;2023-04-29T09:09:05;100892.04;;;14.30;70.60
55733;BME280;41637;52.364;9.910;2023-04-29T09:11:32;100892.55;;;14.35;69.96
55733;BME280;41637;52.364;9.910;2023-04-29T09:14:00;100893.14;;;14.41;69.41
55733;BME280;41637;52.364;9.910;2023-04-29T09:16:27;100892.50;;;14.45;68.60
55733;BME280;41637;52.364;9.910;2023-04-29T09:18:55;100898.35;;;14.48;68.16
55733;BME280;41637;52.364;9.910;2023-04-29T09:21:23;100900.96;;;14.52;68.27
55733;BME280;41637;52.364;9.910;2023-04-29T09:23:53;100908.13;;;14.48;68.41
55733;BME280;41637;52.364;9.910;2023-04-29T09:26:20;100906.97;;;14.42;68.67
55733;BME280;41637;52.364;9.910;2023-04-29T09:29:09;100915.92;;;14.30;68.10
55733;BME280;41637;52.364;9.910;2023-04-29T09:31:37;100919.82;;;14.24;68.54
55733;BME280;41637;52.364;9.910;2023-04-29T09:34:07;100925.29;;;14.20;68.97
55733;BME280;41637;52.364;9.910;2023-04-29T09:36:38;100928.98;;;14.24;68.80
55733;BME280;41637;52.364;9.910;2023-04-29T09:39:07;100925.45;;;14.31;67.91
55733;BME280;41637;52.364;9.910;2023-04-29T09:41:42;100926.62;;;14.44;67.64
55733;BME280;41637;52.364;9.910;2023-04-29T09:44:22;100926.14;;;14.56;67.17
55733;BME280;41637;52.364;9.910;2023-04-29T09:47:02;100924.88;;;14.60;66.46
55733;BME280;41637;52.364;9.910;2023-04-29T09:49:42;100927.57;;;14.64;66.12
55733;BME280;41637;52.364;9.910;2023-04-29T09:52:12;100931.35;;;14.71;65.64
55733;BME280;41637;52.364;9.910;2023-04-29T09:54:40;100935.02;;;14.75;64.54
55733;BME280;41637;52.364;9.910;2023-04-29T09:57:08;100940.85;;;14.81;64.55
55733;BME280;41637;52.364;9.910;2023-04-29T09:59:37;100940.91;;;14.91;64.57
55733;BME280;41637;52.364;9.910;2023-04-29T10:02:14;100939.89;;;14.85;63.40
55733;BME280;41637;52.364;9.910;2023-04-29T10:04:43;100941.03;;;14.71;64.52
55733;BME280;41637;52.364;9.910;2023-04-29T10:07:15;100940.33;;;14.48;65.33
55733;BME280;41637;52.364;9.910;2023-04-29T10:09:44;100949.39;;;14.36;66.24
55733;BME280;41637;52.364;9.910;2023-04-29T10:12:15;100945.86;;;14.21;67.00
55733;BME280;41637;52.364;9.910;2023-04-29T10:14:48;100951.50;;;14.09;68.08
55733;BME280;41637;52.364;9.910;2023-04-29T10:17:23;100961.92;;;13.86;69.33
55733;BME280;41637;52.364;9.910;2023-04-29T10:19:57;100959.11;;;13.72;70.55
55733;BME280;41637;52.364;9.910;2023-04-29T10:22:47;100960.59;;;13.77;71.21
55733;BME280;41637;52.364;9.910;2023-04-29T10:25:15;100957.96;;;13.76;71.20
55733;BME280;41637;52.364;9.910;2023-04-29T10:27:44;100961.17;;;13.98;71.81
55733;BME280;41637;52.364;9.910;2023-04-29T10:30:13;100958.39;;;14.12;70.44
55733;BME280;41637;52.364;9.910;2023-04-29T10:32:40;100956.20;;;14.35;70.59
55733;BME280;41637;52.364;9.910;2023-04-29T10:35:17;100953.56;;;14.55;67.77
55733;BME280;41637;52.364;9.910;2023-04-29T10:37:46;100952.26;;;14.65;66.84
55733;BME280;41637;52.364;9.910;2023-04-29T10:40:30;100952.36;;;14.82;67.00
55733;BME280;41637;52.364;9.910;2023-04-29T10:43:02;100954.02;;;14.90;65.83
55733;BME280;41637;52.364;9.910;2023-04-29T10:45:30;100956.11;;;14.97;65.34
55733;BME280;41637;52.364;9.910;2023-04-29T10:53:03;100952.35;;;15.43;63.71
55733;BME280;41637;52.364;9.910;2023-04-29T10:55:30;100949.88;;;15.68;62.64
55733;BME280;41637;52.364;9.910;2023-04-29T10:58:02;100951.63;;;15.87;62.00
55733;BME280;41637;52.364;9.910;2023-04-29T11:00:31;100949.25;;;16.02;61.91
55733;BME280;41637;52.364;9.910;2023-04-29T11:02:59;100955.35;;;16.11;59.92
55733;BME280;41637;52.364;9.910;2023-04-29T11:08:09;100948.82;;;16.17;58.04
55733;BME280;41637;52.364;9.910;2023-04-29T11:10:42;100951.45;;;16.36;57.15
55733;BME280;41637;52.364;9.910;2023-04-29T11:15:52;100963.67;;;16.48;55.98
55733;BME280;41637;52.364;9.910;2023-04-29T11:18:19;100960.20;;;16.30;56.26
55733;BME280;41637;52.364;9.910;2023-04-29T11:21:10;100959.86;;;16.34;56.29
55733;BME280;41637;52.364;9.910;2023-04-29T11:23:46;100957.67;;;16.41;55.51
55733;BME280;41637;52.364;9.910;2023-04-29T11:26:13;100963.34;;;16.50;55.91
55733;BME280;41637;52.364;9.910;2023-04-29T11:28:41;100957.82;;;16.49;55.73
55733;BME280;41637;52.364;9.910;2023-04-29T11:31:08;100955.77;;;16.72;55.72
55733;BME280;41637;52.364;9.910;2023-04-29T11:33:35;100962.81;;;16.93;51.96
55733;BME280;41637;52.364;9.910;2023-04-29T11:36:02;100962.88;;;16.97;50.93
55733;BME280;41637;52.364;9.910;2023-04-29T11:38:29;100964.55;;;16.89;50.86
55733;BME280;41637;52.364;9.910;2023-04-29T11:40:57;100964.13;;;16.92;52.33
55733;BME280;41637;52.364;9.910;2023-04-29T11:43:24;100967.11;;;17.10;53.14
55733;BME280;41637;52.364;9.910;2023-04-29T11:45:52;100967.14;;;17.29;50.97
55733;BME280;41637;52.364;9.910;2023-04-29T11:48:25;100969.27;;;17.58;49.88
55733;BME280;41637;52.364;9.910;2023-04-29T11:50:56;100977.65;;;17.80;49.94
55733;BME280;41637;52.364;9.910;2023-04-29T11:53:25;100984.63;;;17.84;49.76
55733;BME280;41637;52.364;9.910;2023-04-29T11:55:55;100981.58;;;17.71;48.86
55733;BME280;41637;52.364;9.910;2023-04-29T11:58:23;100981.96;;;17.43;49.41
55733;BME280;41637;52.364;9.910;2023-04-29T12:00:50;100989.15;;;17.21;50.62
55733;BME280;41637;52.364;9.910;2023-04-29T12:03:20;100990.92;;;16.95;51.28
55733;BME280;41637;52.364;9.910;2023-04-29T12:05:54;100999.70;;;16.62;51.86
55733;BME280;41637;52.364;9.910;2023-04-29T12:08:22;100996.05;;;16.45;53.28
55733;BME280;41637;52.364;9.910;2023-04-29T12:10:50;100993.17;;;16.34;52.92
55733;BME280;41637;52.364;9.910;2023-04-29T12:13:18;100992.30;;;16.42;53.47
55733;BME280;41637;52.364;9.910;2023-04-29T12:15:46;100994.41;;;16.58;52.44
55733;BME280;41637;52.364;9.910;2023-04-29T12:18:16;100990.64;;;16.66;51.47
55733;BME280;41637;52.364;9.910;2023-04-29T12:20:44;100988.29;;;16.66;51.80
55733;BME280;41637;52.364;9.910;2023-04-29T12:23:19;100995.64;;;16.50;52.30
55733;BME280;41637;52.364;9.910;2023-04-29T12:25:51;100995.68;;;16.33;52.35
55733;BME280;41637;52.364;9.910;2023-04-29T12:28:19;100993.83;;;16.24;53.34
55733;BME280;41637;52.364;9.910;2023-04-29T12:30:47;101001.89;;;16.17;54.45
55733;BME280;41637;52.364;9.910;2023-04-29T12:33:25;101000.04;;;16.15;54.87
55733;BME280;41637;52.364;9.910;2023-04-29T12:35:54;100995.05;;;16.19;54.53
55733;BME280;41637;52.364;9.910;2023-04-29T12:38:26;101002.05;;;16.21;54.86
55733;BME280;41637;52.364;9.910;2023-04-29T12:40:54;100999.60;;;16.18;54.49
55733;BME280;41637;52.364;9.910;2023-04-29T12:43:28;101004.65;;;16.19;55.21
55733;BME280;41637;52.364;9.910;2023-04-29T12:46:05;101011.45;;;16.15;55.03
55733;BME280;41637;52.364;9.910;2023-04-29T12:48:33;101009.34;;;16.08;54.83
55733;BME280;41637;52.364;9.910;2023-04-29T12:51:00;101009.94;;;16.05;54.96
55733;BME280;41637;52.364;9.910;2023-04-29T12:53:30;101009.16;;;16.01;54.82
55733;BME280;41637;52.364;9.910;2023-04-29T12:55:57;101006.27;;;16.04;54.36
55733;BME280;41637;52.364;9.910;2023-04-29T12:58:27;101007.76;;;16.06;54.06
55733;BME280;41637;52.364;9.910;2023-04-29T13:00:55;101006.95;;;16.08;53.10
55733;BME280;41637;52.364;9.910;2023-04-29T13:03:23;101005.92;;;16.09;53.08
55733;BME280;41637;52.364;9.910;2023-04-29T13:05:50;101010.02;;;16.19;53.07
55733;BME280;41637;52.364;9.910;2023-04-29T13:08:19;101009.23;;;16.23;52.88
55733;BME280;41637;52.364;9.910;2023-04-29T13:10:46;101012.30;;;16.15;52.72
55733;BME280;41637;52.364;9.910;2023-04-29T13:13:13;101014.20;;;15.99;53.10
55733;BME280;41637;52.364;9.910;2023-04-29T13:15:39;101014.14;;;15.85;53.43
55733;BME280;41637;52.364;9.910;2023-04-29T13:18:07;101019.48;;;15.73;53.44